createdAt,value
2022-11-02T00:01:41.485Z,16.80
2022-11-02T00:04:10.253Z,16.80
2022-11-02T00:06:41.321Z,16.80
2022-11-02T00:09:09.786Z,16.80
2022-11-02T00:11:38.631Z,16.80
2022-11-02T00:14:07.205Z,16.90
2022-11-02T00:16:38.282Z,16.80
2022-11-02T00:19:07.815Z,16.80
2022-11-02T00:21:39.206Z,16.80
2022-11-02T00:24:08.757Z,16.80
2022-11-02T00:26:38.607Z,16.80
2022-11-02T00:29:07.631Z,16.80
2022-11-02T00:31:35.982Z,16.90
2022-11-02T00:34:04.262Z,16.90
2022-11-02T00:36:32.741Z,16.90
2022-11-02T00:39:02.554Z,16.90
2022-11-02T00:41:30.920Z,16.90
2022-11-02T00:43:59.421Z,16.90
2022-11-02T00:46:28.106Z,16.90
2022-11-02T00:48:56.533Z,16.90
2022-11-02T00:51:25.375Z,16.90
2022-11-02T00:53:54.049Z,16.90
2022-11-02T00:56:23.846Z,16.90
2022-11-02T00:58:52.823Z,16.90
2022-11-02T01:01:24.220Z,16.90
2022-11-02T01:03:53.011Z,16.90
2022-11-02T01:06:21.716Z,16.80
2022-11-02T01:08:50.973Z,16.80
2022-11-02T01:11:22.392Z,16.80
2022-11-02T01:13:54.761Z,16.80
2022-11-02T01:16:23.237Z,16.80
2022-11-02T01:18:54.220Z,16.80
2022-11-02T01:21:23.063Z,16.80
2022-11-02T01:23:51.876Z,16.80
2022-11-02T01:26:21.888Z,16.80
2022-11-02T01:28:50.296Z,16.80
2022-11-02T01:31:20.099Z,16.80
2022-11-02T01:33:49.060Z,16.80
2022-11-02T01:38:54.839Z,16.80
2022-11-02T01:41:23.770Z,16.70
2022-11-02T01:43:56.594Z,16.70
2022-11-02T01:46:36.021Z,16.70
2022-11-02T01:49:09.494Z,16.70
2022-11-02T01:51:42.105Z,16.70
2022-11-02T01:54:15.412Z,16.70
2022-11-02T01:56:48.610Z,16.70
2022-11-02T01:59:24.887Z,16.70
2022-11-02T02:01:55.203Z,16.70
2022-11-02T02:04:24.670Z,16.70
2022-11-02T02:06:55.111Z,16.70
2022-11-02T02:09:25.577Z,16.70
2022-11-02T02:11:54.501Z,16.70
2022-11-02T02:14:23.170Z,16.70
2022-11-02T02:17:06.424Z,16.70
2022-11-02T02:19:45.776Z,16.70
2022-11-02T02:22:50.119Z,16.70
2022-11-02T02:25:41.751Z,16.70
2022-11-02T02:28:20.633Z,16.70
2022-11-02T02:30:59.672Z,16.70
2022-11-02T02:33:34.168Z,16.70
2022-11-02T02:36:10.511Z,16.70
2022-11-02T02:38:47.499Z,16.70
2022-11-02T02:41:25.256Z,16.70
2022-11-02T02:43:58.553Z,16.70
2022-11-02T02:46:34.692Z,16.70
2022-11-02T02:49:05.949Z,16.70
2022-11-02T02:51:37.196Z,16.70
2022-11-02T02:54:12.392Z,16.60
2022-11-02T02:59:23.906Z,16.60
2022-11-02T03:01:53.207Z,16.60
2022-11-02T03:04:22.016Z,16.60
2022-11-02T03:06:54.460Z,16.60
2022-11-02T03:09:32.166Z,16.60
2022-11-02T03:12:20.719Z,16.60
2022-11-02T03:15:07.790Z,16.60
2022-11-02T03:17:48.343Z,16.50
2022-11-02T03:20:26.879Z,16.60
2022-11-02T03:23:08.013Z,16.60
2022-11-02T03:25:50.004Z,16.50
2022-11-02T03:28:27.901Z,16.50
2022-11-02T03:31:07.834Z,16.50
2022-11-02T03:33:40.569Z,16.50
2022-11-02T03:36:14.240Z,16.50
2022-11-02T03:38:47.535Z,16.50
2022-11-02T03:41:19.175Z,16.50
2022-11-02T03:43:52.156Z,16.50
2022-11-02T03:46:24.210Z,16.50
2022-11-02T03:48:54.055Z,16.50
2022-11-02T03:51:25.032Z,16.50
2022-11-02T03:53:59.724Z,16.50
2022-11-02T03:56:37.374Z,16.50
2022-11-02T03:59:06.186Z,16.50
2022-11-02T04:01:41.703Z,16.50
2022-11-02T04:04:10.223Z,16.50
2022-11-02T04:06:40.034Z,16.40
2022-11-02T04:09:13.711Z,16.50
2022-11-02T04:12:00.529Z,16.40
2022-11-02T04:14:40.136Z,16.40
2022-11-02T04:17:32.195Z,16.40
2022-11-02T04:20:02.891Z,16.40
2022-11-02T04:22:49.254Z,16.40
2022-11-02T04:25:20.472Z,16.40
2022-11-02T04:27:58.236Z,16.40
2022-11-02T04:30:31.547Z,16.40
2022-11-02T04:33:19.999Z,16.40
2022-11-02T04:35:55.278Z,16.30
2022-11-02T04:38:41.911Z,16.30
2022-11-02T04:41:42.966Z,16.30
2022-11-02T04:44:46.598Z,16.30
2022-11-02T04:47:21.700Z,16.30
2022-11-02T04:49:51.536Z,16.30
2022-11-02T04:52:20.938Z,16.30
2022-11-02T04:54:52.647Z,16.20
2022-11-02T04:57:21.141Z,16.20
2022-11-02T04:59:49.868Z,16.20
2022-11-02T05:02:21.596Z,16.20
2022-11-02T05:04:51.717Z,16.20
2022-11-02T05:07:20.153Z,16.20
2022-11-02T05:09:49.118Z,16.20
2022-11-02T05:12:17.518Z,16.20
2022-11-02T05:14:46.064Z,16.20
2022-11-02T05:17:16.251Z,16.20
2022-11-02T05:19:45.045Z,16.20
2022-11-02T05:22:15.897Z,16.20
2022-11-02T05:24:44.941Z,16.20
2022-11-02T05:27:14.879Z,16.20
2022-11-02T05:29:46.612Z,16.20
2022-11-02T05:32:15.622Z,16.20
2022-11-02T05:34:45.086Z,16.20
2022-11-02T05:37:15.054Z,16.20
2022-11-02T05:39:46.337Z,16.20
2022-11-02T05:42:17.782Z,16.20
2022-11-02T05:44:46.367Z,16.10
2022-11-02T05:47:15.634Z,16.10
2022-11-02T05:49:44.027Z,16.20
2022-11-02T05:52:12.373Z,16.10
2022-11-02T05:54:42.290Z,16.10
2022-11-02T05:57:10.713Z,16.20
2022-11-02T05:59:39.096Z,16.20
2022-11-02T06:02:07.449Z,16.20
2022-11-02T06:04:35.860Z,16.20
2022-11-02T06:07:04.407Z,16.10
2022-11-02T06:09:32.742Z,16.20
2022-11-02T06:12:02.501Z,16.10
2022-11-02T06:14:30.978Z,16.10
2022-11-02T06:16:59.372Z,16.10
2022-11-02T06:19:28.338Z,16.10
2022-11-02T06:21:56.908Z,16.10
2022-11-02T06:24:25.573Z,16.10
2022-11-02T06:26:55.422Z,16.10
2022-11-02T06:29:26.337Z,16.10
2022-11-02T06:31:54.769Z,16.10
2022-11-02T06:34:23.248Z,16.10
2022-11-02T06:36:51.698Z,16.10
2022-11-02T06:39:20.394Z,16.10
2022-11-02T06:41:48.748Z,16.10
2022-11-02T06:44:17.728Z,16.00
2022-11-02T06:46:47.760Z,16.00
2022-11-02T06:49:16.836Z,16.00
2022-11-02T06:51:45.229Z,16.00
2022-11-02T06:54:14.587Z,16.00
2022-11-02T06:56:42.925Z,16.00
2022-11-02T06:59:11.287Z,16.00
2022-11-02T07:01:40.275Z,16.00
2022-11-02T07:04:10.054Z,16.00
2022-11-02T07:06:38.536Z,16.00
2022-11-02T07:09:07.115Z,16.00
2022-11-02T07:11:35.563Z,16.00
2022-11-02T07:14:03.936Z,16.00
2022-11-02T07:16:32.388Z,16.00
2022-11-02T07:19:01.325Z,16.00
2022-11-02T07:21:31.117Z,16.00
2022-11-02T07:23:59.461Z,16.00
2022-11-02T07:26:27.828Z,16.00
2022-11-02T07:28:59.228Z,16.00
2022-11-02T07:31:28.086Z,16.00
2022-11-02T07:33:56.617Z,16.00
2022-11-02T07:36:24.938Z,16.00
2022-11-02T07:38:54.696Z,16.00
2022-11-02T07:41:23.168Z,16.00
2022-11-02T07:43:51.615Z,16.00
2022-11-02T07:46:37.350Z,16.00
2022-11-02T07:49:05.756Z,16.00
2022-11-02T07:51:34.647Z,16.00
2022-11-02T07:54:04.764Z,16.00
2022-11-02T07:56:33.158Z,16.00
2022-11-02T07:59:01.586Z,16.00
2022-11-02T08:01:30.407Z,16.10
2022-11-02T08:03:59.649Z,16.10
2022-11-02T08:06:27.980Z,16.00
2022-11-02T08:08:56.762Z,16.00
2022-11-02T08:11:26.601Z,16.10
2022-11-02T08:13:55.032Z,16.10
2022-11-02T08:16:23.414Z,16.10
2022-11-02T08:18:51.829Z,16.10
2022-11-02T08:21:20.142Z,16.10
2022-11-02T08:23:48.501Z,16.10
2022-11-02T08:26:18.174Z,16.10
2022-11-02T08:28:48.238Z,16.10
2022-11-02T08:31:18.396Z,16.10
2022-11-02T08:33:47.256Z,16.10
2022-11-02T08:36:15.576Z,16.10
2022-11-02T08:38:43.982Z,16.20
2022-11-02T08:41:12.410Z,16.20
2022-11-02T08:43:40.842Z,16.20
2022-11-02T08:46:15.165Z,16.20
2022-11-02T08:48:44.422Z,16.20
2022-11-02T08:51:12.900Z,16.30
2022-11-02T08:53:43.739Z,16.30
2022-11-02T08:56:14.335Z,16.30
2022-11-02T08:58:42.748Z,16.30
2022-11-02T09:01:12.666Z,16.30
2022-11-02T09:03:41.490Z,16.30
2022-11-02T09:06:10.002Z,16.30
2022-11-02T09:08:38.398Z,16.30
2022-11-02T09:11:07.059Z,16.30
2022-11-02T09:13:35.408Z,16.30
2022-11-02T09:16:04.132Z,16.30
2022-11-02T09:18:34.120Z,16.30
2022-11-02T09:21:06.456Z,16.30
2022-11-02T09:23:34.932Z,16.30
2022-11-02T09:26:03.436Z,16.30
2022-11-02T09:28:32.151Z,16.40
2022-11-02T09:31:00.639Z,16.30
2022-11-02T09:33:29.855Z,16.40
2022-11-02T09:36:03.896Z,16.40
2022-11-02T09:38:32.447Z,16.40
2022-11-02T09:41:15.586Z,16.40
2022-11-02T09:43:58.732Z,16.40
2022-11-02T09:46:31.868Z,16.50
2022-11-02T09:49:04.212Z,16.50
2022-11-02T09:51:38.916Z,16.50
2022-11-02T09:54:17.439Z,16.50
2022-11-02T09:56:47.555Z,16.50
2022-11-02T09:59:18.068Z,16.60
2022-11-02T10:01:59.864Z,16.60
2022-11-02T10:05:11.207Z,16.60
2022-11-02T10:08:17.101Z,16.70
2022-11-02T10:10:55.612Z,16.70
2022-11-02T10:13:36.201Z,16.70
2022-11-02T10:16:09.776Z,16.80
2022-11-02T10:18:41.607Z,16.80
2022-11-02T10:21:15.171Z,16.80
2022-11-02T10:23:52.604Z,16.80
2022-11-02T10:26:25.814Z,16.80
2022-11-02T10:29:01.048Z,16.80
2022-11-02T10:31:34.396Z,16.80
2022-11-02T10:34:17.595Z,16.80
2022-11-02T10:36:53.998Z,16.90
2022-11-02T10:39:31.568Z,16.90
2022-11-02T10:42:32.320Z,16.90
2022-11-02T10:45:21.113Z,16.90
2022-11-02T10:48:03.954Z,16.90
2022-11-02T10:50:48.710Z,16.90
2022-11-02T10:53:40.227Z,16.90
2022-11-02T10:56:29.645Z,16.90
2022-11-02T10:59:05.215Z,16.90
2022-11-02T11:01:33.819Z,17.00
2022-11-02T11:04:04.514Z,17.00
2022-11-02T11:06:38.009Z,17.00
2022-11-02T11:09:16.834Z,17.00
2022-11-02T11:11:56.353Z,17.10
2022-11-02T11:20:33.561Z,17.10
2022-11-02T11:23:21.544Z,17.10
2022-11-02T11:26:00.198Z,17.20
2022-11-02T11:28:33.744Z,17.10
2022-11-02T11:31:12.772Z,17.10
2022-11-02T11:33:54.145Z,17.10
2022-11-02T11:36:30.420Z,17.10
2022-11-02T11:39:05.407Z,17.10
2022-11-02T11:41:35.912Z,17.10
2022-11-02T11:44:10.450Z,17.10
2022-11-02T11:46:45.256Z,17.10
2022-11-02T11:49:41.695Z,17.10
2022-11-02T11:52:26.991Z,17.10
2022-11-02T11:55:01.432Z,17.10
2022-11-02T11:57:32.897Z,17.20
2022-11-02T12:00:07.125Z,17.20
2022-11-02T12:02:43.862Z,17.20
2022-11-02T12:05:16.474Z,17.30
2022-11-02T12:08:21.682Z,17.30
2022-11-02T12:11:20.262Z,17.30
2022-11-02T12:14:11.240Z,17.30
2022-11-02T12:17:13.632Z,17.30
2022-11-02T12:20:04.664Z,17.30
2022-11-02T12:22:44.341Z,17.30
2022-11-02T12:25:42.438Z,17.30
2022-11-02T12:28:32.200Z,17.30
2022-11-02T12:31:14.043Z,17.30
2022-11-02T12:34:01.556Z,17.30
2022-11-02T12:37:26.048Z,17.30
2022-11-02T12:39:55.922Z,17.30
2022-11-02T12:42:30.271Z,17.30
2022-11-02T12:45:21.306Z,17.30
2022-11-02T12:47:58.428Z,17.30
2022-11-02T12:50:51.905Z,17.30
2022-11-02T12:53:41.514Z,17.30
2022-11-02T12:56:17.214Z,17.40
2022-11-02T12:58:46.295Z,17.40
2022-11-02T13:01:23.788Z,17.50
2022-11-02T13:03:59.903Z,17.50
2022-11-02T13:06:36.845Z,17.50
2022-11-02T13:09:12.266Z,17.60
2022-11-02T13:11:45.706Z,17.60
2022-11-02T13:14:17.829Z,17.60
2022-11-02T13:16:53.681Z,17.60
2022-11-02T13:19:35.143Z,17.60
2022-11-02T13:22:06.866Z,17.60
2022-11-02T13:24:42.128Z,17.70
2022-11-02T13:27:37.616Z,17.60
2022-11-02T13:30:16.516Z,17.60
2022-11-02T13:32:48.239Z,17.70
2022-11-02T13:35:23.771Z,17.60
2022-11-02T13:37:59.909Z,17.60
2022-11-02T13:40:35.231Z,17.60
2022-11-02T13:43:34.665Z,17.60
2022-11-02T13:46:31.320Z,17.60
2022-11-02T13:49:03.478Z,17.60
2022-11-02T13:51:38.276Z,17.60
2022-11-02T13:54:16.496Z,17.60
2022-11-02T13:56:45.912Z,17.60
2022-11-02T13:59:23.066Z,17.70
2022-11-02T14:01:54.809Z,17.70
2022-11-02T14:04:23.892Z,17.60
2022-11-02T14:06:57.690Z,17.60
2022-11-02T14:09:32.099Z,17.60
2022-11-02T14:12:27.123Z,17.60
2022-11-02T14:15:52.614Z,17.70
2022-11-02T14:18:31.971Z,17.60
2022-11-02T14:21:44.705Z,17.60
2022-11-02T14:25:05.495Z,17.60
2022-11-02T14:27:38.566Z,17.60
2022-11-02T14:30:48.819Z,17.60
2022-11-02T14:33:33.084Z,17.60
2022-11-02T14:36:05.717Z,17.60
2022-11-02T14:38:59.753Z,17.60
2022-11-02T14:41:50.866Z,17.60
2022-11-02T14:44:46.386Z,17.60
2022-11-02T14:47:17.098Z,17.60
2022-11-02T14:49:51.831Z,17.60
2022-11-02T14:52:27.857Z,17.60
2022-11-02T14:55:03.860Z,17.60
2022-11-02T14:57:37.304Z,17.50
2022-11-02T15:00:19.014Z,17.60
2022-11-02T15:02:50.856Z,17.60
2022-11-02T15:05:28.311Z,17.60
2022-11-02T15:08:02.128Z,17.50
2022-11-02T15:10:43.644Z,17.50
2022-11-02T15:13:49.484Z,17.50
2022-11-02T15:16:27.196Z,17.50
2022-11-02T15:18:55.859Z,17.40
2022-11-02T15:21:29.057Z,17.40
2022-11-02T15:24:17.328Z,17.40
2022-11-02T15:26:50.825Z,17.40
2022-11-02T15:29:37.120Z,17.40
2022-11-02T15:32:15.072Z,17.40
2022-11-02T15:34:50.800Z,17.40
2022-11-02T15:37:23.219Z,17.40
2022-11-02T15:39:53.607Z,17.30
2022-11-02T15:42:37.832Z,17.30
2022-11-02T15:48:39.026Z,17.20
2022-11-02T15:51:17.971Z,17.20
2022-11-02T15:54:17.683Z,17.20
2022-11-02T15:56:58.975Z,17.10
2022-11-02T15:59:48.520Z,17.10
2022-11-02T16:02:26.470Z,17.10
2022-11-02T16:04:59.301Z,17.00
2022-11-02T16:07:38.277Z,17.00
2022-11-02T16:10:25.994Z,17.00
2022-11-02T16:13:14.424Z,16.90
2022-11-02T16:15:43.602Z,16.90
2022-11-02T16:18:38.343Z,16.90
2022-11-02T16:21:11.554Z,16.80
2022-11-02T16:23:44.592Z,16.80
2022-11-02T16:26:22.133Z,16.80
2022-11-02T16:28:53.057Z,16.80
2022-11-02T16:31:25.092Z,16.70
2022-11-02T16:33:57.012Z,16.70
2022-11-02T16:36:28.157Z,16.70
2022-11-02T16:39:01.184Z,16.70
2022-11-02T16:41:32.546Z,16.70
2022-11-02T16:44:09.138Z,16.70
2022-11-02T16:46:44.108Z,16.60
2022-11-02T16:49:20.956Z,16.60
2022-11-02T16:51:52.096Z,16.60
2022-11-02T16:54:30.137Z,16.50
2022-11-02T16:57:08.653Z,16.60
2022-11-02T16:59:53.574Z,16.50
2022-11-02T17:02:33.681Z,16.50
2022-11-02T17:05:06.694Z,16.50
2022-11-02T17:07:40.648Z,16.40
2022-11-02T17:10:10.580Z,16.40
2022-11-02T17:12:44.108Z,16.40
2022-11-02T17:15:19.044Z,16.40
2022-11-02T17:17:48.262Z,16.40
2022-11-02T17:20:23.100Z,16.30
2022-11-02T17:23:00.342Z,16.30
2022-11-02T17:25:31.051Z,16.30
2022-11-02T17:28:01.514Z,16.30
2022-11-02T17:30:48.023Z,16.30
2022-11-02T17:33:32.794Z,16.20
2022-11-02T17:36:09.234Z,16.20
2022-11-02T17:38:37.940Z,16.20
2022-11-02T17:41:27.873Z,16.20
2022-11-02T17:43:55.335Z,16.10
2022-11-02T17:46:23.831Z,16.10
2022-11-02T17:48:52.374Z,16.10
2022-11-02T17:51:25.489Z,16.10
2022-11-02T17:53:54.560Z,16.00
2022-11-02T17:56:23.405Z,16.00
2022-11-02T17:58:52.353Z,16.00
2022-11-02T18:01:20.846Z,16.00
2022-11-02T18:03:49.667Z,16.00
2022-11-02T18:06:18.064Z,16.00
2022-11-02T18:09:05.552Z,15.90
2022-11-02T18:11:33.980Z,15.90
2022-11-02T18:14:02.452Z,15.90
2022-11-02T18:16:32.121Z,15.90
2022-11-02T18:19:00.619Z,15.90
2022-11-02T18:21:29.026Z,15.80
2022-11-02T18:23:58.999Z,15.80
2022-11-02T18:26:27.654Z,15.80
2022-11-02T18:28:56.065Z,15.80
2022-11-02T18:31:24.487Z,15.80
2022-11-02T18:33:53.296Z,15.80
2022-11-02T18:36:21.755Z,15.80
2022-11-02T18:38:50.219Z,15.80
2022-11-02T18:41:29.813Z,15.80
2022-11-02T18:44:04.161Z,15.80
2022-11-02T18:46:34.749Z,15.80
2022-11-02T18:49:03.472Z,15.80
2022-11-02T18:51:32.304Z,15.80
2022-11-02T18:54:04.460Z,15.80
2022-11-02T18:56:34.498Z,15.80
2022-11-02T18:59:03.377Z,15.70
2022-11-02T19:01:32.032Z,15.70
2022-11-02T19:04:01.719Z,15.70
2022-11-02T19:06:49.881Z,15.70
2022-11-02T19:09:21.461Z,15.70
2022-11-02T19:11:56.777Z,15.70
2022-11-02T19:14:26.198Z,15.70
2022-11-02T19:16:54.677Z,15.70
2022-11-02T19:19:23.357Z,15.70
2022-11-02T19:21:52.086Z,15.60
2022-11-02T19:24:21.445Z,15.60
2022-11-02T19:26:50.002Z,15.60
2022-11-02T19:29:20.355Z,15.60
2022-11-02T19:31:49.027Z,15.60
2022-11-02T19:34:17.499Z,15.60
2022-11-02T19:36:46.038Z,15.60
2022-11-02T19:39:14.397Z,15.60
2022-11-02T19:41:42.706Z,15.50
2022-11-02T19:44:11.398Z,15.50
2022-11-02T19:49:14.970Z,15.50
2022-11-02T19:51:43.439Z,15.50
2022-11-02T19:54:11.977Z,15.50
2022-11-02T19:56:41.323Z,15.50
2022-11-02T19:59:09.780Z,15.60
2022-11-02T20:01:42.107Z,15.50
2022-11-02T20:04:11.824Z,15.50
2022-11-02T20:06:42.867Z,15.50
2022-11-02T20:09:16.349Z,15.50
2022-11-02T20:11:46.294Z,15.50
2022-11-02T20:14:17.214Z,15.50
2022-11-02T20:16:58.304Z,15.50
2022-11-02T20:19:33.597Z,15.50
2022-11-02T20:22:02.237Z,15.50
2022-11-02T20:24:31.046Z,15.50
2022-11-02T20:27:02.900Z,15.50
2022-11-02T20:29:31.403Z,15.50
2022-11-02T20:32:02.213Z,15.50
2022-11-02T20:34:30.735Z,15.50
2022-11-02T20:37:00.010Z,15.50
2022-11-02T20:39:29.357Z,15.50
2022-11-02T20:41:57.921Z,15.40
2022-11-02T20:44:26.404Z,15.50
2022-11-02T20:46:55.027Z,15.50
2022-11-02T20:49:49.303Z,15.50
2022-11-02T20:52:17.155Z,15.50
2022-11-02T20:54:46.022Z,15.50
2022-11-02T20:57:15.075Z,15.50
2022-11-02T20:59:43.546Z,15.50
2022-11-02T21:02:13.030Z,15.40
2022-11-02T21:04:42.995Z,15.50
2022-11-02T21:07:11.965Z,15.40
2022-11-02T21:09:40.597Z,15.40
2022-11-02T21:12:28.271Z,15.40
2022-11-02T21:14:57.342Z,15.40
2022-11-02T21:17:26.167Z,15.40
2022-11-02T21:20:14.216Z,15.40
2022-11-02T21:22:47.021Z,15.30
2022-11-02T21:25:15.660Z,15.30
2022-11-02T21:27:44.774Z,15.30
2022-11-02T21:30:14.381Z,15.30
2022-11-02T21:32:43.523Z,15.30
2022-11-02T21:35:14.525Z,15.30
2022-11-02T21:37:43.133Z,15.30
2022-11-02T21:40:13.370Z,15.30
2022-11-02T21:42:42.516Z,15.30
2022-11-02T21:45:16.498Z,15.30
2022-11-02T21:47:46.806Z,15.30
2022-11-02T21:50:16.781Z,15.30
2022-11-02T21:52:45.477Z,15.30
2022-11-02T21:55:13.854Z,15.40
2022-11-02T21:57:42.493Z,15.30
2022-11-02T22:00:12.661Z,15.30
2022-11-02T22:02:40.639Z,15.30
2022-11-02T22:05:29.517Z,15.30
2022-11-02T22:08:16.879Z,15.30
2022-11-02T22:10:45.297Z,15.30
2022-11-02T22:13:31.535Z,15.30
2022-11-02T22:16:08.175Z,15.30
2022-11-02T22:18:36.758Z,15.30
2022-11-02T22:21:06.022Z,15.20
2022-11-02T22:23:36.083Z,15.20
2022-11-02T22:26:08.124Z,15.20
2022-11-02T22:28:39.882Z,15.20
2022-11-02T22:31:11.083Z,15.20
2022-11-02T22:33:40.439Z,15.20
2022-11-02T22:36:11.876Z,15.20
2022-11-02T22:39:02.467Z,15.20
2022-11-02T22:41:32.876Z,15.20
2022-11-02T22:44:02.978Z,15.20
2022-11-02T22:46:34.491Z,15.20
2022-11-02T22:49:04.641Z,15.20
2022-11-02T22:51:35.988Z,15.10
2022-11-02T22:54:08.264Z,15.10
2022-11-02T22:56:37.220Z,15.10
2022-11-02T22:59:06.360Z,15.10
2022-11-02T23:01:36.531Z,15.10
2022-11-02T23:04:06.317Z,15.10
2022-11-02T23:06:35.532Z,15.10
2022-11-02T23:09:06.173Z,15.10
2022-11-02T23:11:36.683Z,15.10
2022-11-02T23:14:07.891Z,15.10
2022-11-02T23:16:38.632Z,15.10
2022-11-02T23:19:29.614Z,15.10
2022-11-02T23:22:18.404Z,15.10
2022-11-02T23:25:08.398Z,15.00
2022-11-02T23:27:58.523Z,15.00
2022-11-02T23:30:46.863Z,15.00
2022-11-02T23:33:15.433Z,15.00
2022-11-02T23:36:01.957Z,15.00
2022-11-02T23:38:51.292Z,15.00
2022-11-02T23:41:21.498Z,15.00
2022-11-02T23:43:50.241Z,15.00
2022-11-02T23:46:18.951Z,15.00
2022-11-02T23:48:49.793Z,14.90
2022-11-02T23:51:39.020Z,14.90
2022-11-02T23:54:25.068Z,15.00
2022-11-02T23:56:55.036Z,14.90
2022-11-02T23:59:23.610Z,14.90
